sensor_id;sensor_type;location;lat;lon;timestamp;pressure;altitude;pressure_sealevel;temperature;humidity
23170;BME280;11753;43.144;24.714;2023-05-29T00:00:03;99414.56;;;17.42;100.00
23170;BME280;11753;43.144;24.714;2023-05-29T00:01:10;99419.28;;;17.40;100.00
23170;BME280;11753;43.144;24.714;2023-05-29T00:02:11;99417.88;;;17.37;100.00
23170;BME280;11753;43.144;24.714;2023-05-29T00:03:12;99415.19;;;17.37;100.00
23170;BME280;11753;43.144;24.714;2023-05-29T00:04:13;99407.41;;;17.29;100.00
23170;BME280;11753;43.144;24.714;2023-05-29T00:05:15;99400.00;;;17.18;100.00
23170;BME280;11753;43.144;24.714;2023-05-29T00:06:15;99402.91;;;17.23;100.00
23170;BME280;11753;43.144;24.714;2023-05-29T00:07:16;99404.53;;;17.24;100.00
23170;BME280;11753;43.144;24.714;2023-05-29T00:08:17;99397.56;;;17.23;100.00
23170;BME280;11753;43.144;24.714;2023-05-29T00:09:17;99404.34;;;17.32;100.00
23170;BME280;11753;43.144;24.714;2023-05-29T00:10:18;99408.22;;;17.29;100.00
23170;BME280;11753;43.144;24.714;2023-05-29T00:11:22;99413.13;;;17.26;100.00
23170;BME280;11753;43.144;24.714;2023-05-29T00:12:23;99407.16;;;17.17;100.00
23170;BME280;11753;43.144;24.714;2023-05-29T00:13:24;99406.16;;;17.18;100.00
23170;BME280;11753;43.144;24.714;2023-05-29T00:14:25;99412.28;;;17.19;100.00
23170;BME280;11753;43.144;24.714;2023-05-29T00:15:27;99411.88;;;17.15;100.00
23170;BME280;11753;43.144;24.714;2023-05-29T00:16:29;99416.38;;;17.15;100.00
23170;BME280;11753;43.144;24.714;2023-05-29T00:17:31;99420.69;;;17.16;100.00
23170;BME280;11753;43.144;24.714;2023-05-29T00:18:35;99411.06;;;17.15;100.00
23170;BME280;11753;43.144;24.714;2023-05-29T00:19:36;99412.69;;;17.16;100.00
23170;BME280;11753;43.144;24.714;2023-05-29T00:20:37;99412.06;;;17.14;100.00
23170;BME280;11753;43.144;24.714;2023-05-29T00:21:39;99417.19;;;17.09;100.00
23170;BME280;11753;43.144;24.714;2023-05-29T00:22:40;99411.22;;;17.06;100.00
23170;BME280;11753;43.144;24.714;2023-05-29T00:23:41;99414.50;;;17.02;100.00
23170;BME280;11753;43.144;24.714;2023-05-29T00:24:42;99407.34;;;17.02;100.00
23170;BME280;11753;43.144;24.714;2023-05-29T00:25:42;99414.91;;;17.05;100.00
23170;BME280;11753;43.144;24.714;2023-05-29T00:26:43;99424.13;;;17.10;100.00
23170;BME280;11753;43.144;24.714;2023-05-29T00:27:44;99422.09;;;17.12;100.00
23170;BME280;11753;43.144;24.714;2023-05-29T00:28:45;99413.88;;;17.06;100.00
23170;BME280;11753;43.144;24.714;2023-05-29T00:29:49;99422.50;;;17.09;100.00
23170;BME280;11753;43.144;24.714;2023-05-29T00:30:50;99420.66;;;17.09;100.00
23170;BME280;11753;43.144;24.714;2023-05-29T00:31:51;99423.50;;;17.14;100.00
23170;BME280;11753;43.144;24.714;2023-05-29T00:32:54;99417.59;;;17.12;100.00
23170;BME280;11753;43.144;24.714;2023-05-29T00:33:55;99430.06;;;17.12;100.00
23170;BME280;11753;43.144;24.714;2023-05-29T00:34:55;99419.41;;;17.12;100.00
23170;BME280;11753;43.144;24.714;2023-05-29T00:35:56;99420.44;;;17.11;100.00
23170;BME280;11753;43.144;24.714;2023-05-29T00:36:57;99415.34;;;17.09;100.00
23170;BME280;11753;43.144;24.714;2023-05-29T00:37:58;99415.97;;;17.18;100.00
23170;BME280;11753;43.144;24.714;2023-05-29T00:38:59;99419.66;;;17.17;100.00
23170;BME280;11753;43.144;24.714;2023-05-29T00:40:00;99422.53;;;17.22;100.00
23170;BME280;11753;43.144;24.714;2023-05-29T00:41:04;99430.50;;;17.22;100.00
23170;BME280;11753;43.144;24.714;2023-05-29T00:42:06;99421.28;;;17.18;100.00
23170;BME280;11753;43.144;24.714;2023-05-29T00:43:07;99429.25;;;17.18;100.00
23170;BME280;11753;43.144;24.714;2023-05-29T00:44:08;99429.28;;;17.24;100.00
23170;BME280;11753;43.144;24.714;2023-05-29T00:45:09;99427.00;;;17.21;100.00
23170;BME280;11753;43.144;24.714;2023-05-29T00:46:12;99427.84;;;17.22;100.00
23170;BME280;11753;43.144;24.714;2023-05-29T00:47:15;99432.75;;;17.25;100.00
23170;BME280;11753;43.144;24.714;2023-05-29T00:48:16;99430.94;;;17.32;100.00
23170;BME280;11753;43.144;24.714;2023-05-29T00:49:17;99425.63;;;17.32;100.00
23170;BME280;11753;43.144;24.714;2023-05-29T00:50:21;99428.28;;;17.32;100.00
23170;BME280;11753;43.144;24.714;2023-05-29T00:51:25;99430.34;;;17.37;100.00
23170;BME280;11753;43.144;24.714;2023-05-29T00:52:29;99426.03;;;17.36;100.00
23170;BME280;11753;43.144;24.714;2023-05-29T00:53:30;99420.09;;;17.33;100.00
23170;BME280;11753;43.144;24.714;2023-05-29T00:54:32;99422.97;;;17.39;100.00
23170;BME280;11753;43.144;24.714;2023-05-29T00:55:33;99414.56;;;17.42;100.00
23170;BME280;11753;43.144;24.714;2023-05-29T00:56:35;99412.34;;;17.45;100.00
23170;BME280;11753;43.144;24.714;2023-05-29T00:57:36;99410.72;;;17.44;100.00
23170;BME280;11753;43.144;24.714;2023-05-29T00:58:40;99418.88;;;17.43;100.00
23170;BME280;11753;43.144;24.714;2023-05-29T00:59:42;99414.41;;;17.43;100.00
23170;BME280;11753;43.144;24.714;2023-05-29T01:00:49;99422.78;;;17.47;100.00
23170;BME280;11753;43.144;24.714;2023-05-29T01:01:51;99416.63;;;17.40;100.00
23170;BME280;11753;43.144;24.714;2023-05-29T01:02:53;99417.66;;;17.45;100.00
23170;BME280;11753;43.144;24.714;2023-05-29T01:03:55;99418.69;;;17.44;100.00
23170;BME280;11753;43.144;24.714;2023-05-29T01:05:00;99416.84;;;17.38;100.00
23170;BME280;11753;43.144;24.714;2023-05-29T01:06:02;99417.06;;;17.43;100.00
23170;BME280;11753;43.144;24.714;2023-05-29T01:07:04;99414.41;;;17.43;100.00
23170;BME280;11753;43.144;24.714;2023-05-29T01:08:05;99425.63;;;17.39;100.00
23170;BME280;11753;43.144;24.714;2023-05-29T01:09:06;99409.25;;;17.35;100.00
23170;BME280;11753;43.144;24.714;2023-05-29T01:10:07;99415.22;;;17.44;100.00
23170;BME280;11753;43.144;24.714;2023-05-29T01:12:52;99414.41;;;17.43;100.00
23170;BME280;11753;43.144;24.714;2023-05-29T01:13:59;99414.16;;;17.38;100.00
23170;BME280;11753;43.144;24.714;2023-05-29T01:16:42;99415.22;;;17.44;100.00
23170;BME280;11753;43.144;24.714;2023-05-29T01:17:59;99423.19;;;17.44;100.00
23170;BME280;11753;43.144;24.714;2023-05-29T01:19:23;99418.88;;;17.36;100.00
23170;BME280;11753;43.144;24.714;2023-05-29T01:20:41;99425.03;;;17.43;100.00
23170;BME280;11753;43.144;24.714;2023-05-29T01:22:06;99415.38;;;17.42;100.00
23170;BME280;11753;43.144;24.714;2023-05-29T01:24:41;99419.69;;;17.30;100.00
23170;BME280;11753;43.144;24.714;2023-05-29T01:27:15;99420.88;;;17.21;100.00
23170;BME280;11753;43.144;24.714;2023-05-29T01:28:20;99415.78;;;17.26;100.00
23170;BME280;11753;43.144;24.714;2023-05-29T01:29:24;99425.00;;;17.30;100.00
23170;BME280;11753;43.144;24.714;2023-05-29T01:30:28;99424.38;;;17.28;100.00
23170;BME280;11753;43.144;24.714;2023-05-29T01:31:31;99412.88;;;17.21;100.00
23170;BME280;11753;43.144;24.714;2023-05-29T01:32:32;99407.38;;;17.16;100.00
23170;BME280;11753;43.144;24.714;2023-05-29T01:33:33;99408.22;;;17.23;100.00
23170;BME280;11753;43.144;24.714;2023-05-29T01:34:34;99422.94;;;17.25;100.00
23170;BME280;11753;43.144;24.714;2023-05-29T01:35:35;99417.22;;;17.22;100.00
23170;BME280;11753;43.144;24.714;2023-05-29T01:36:36;99414.94;;;17.19;100.00
23170;BME280;11753;43.144;24.714;2023-05-29T01:37:37;99407.75;;;17.13;100.00
23170;BME280;11753;43.144;24.714;2023-05-29T01:38:38;99409.00;;;17.17;100.00
23170;BME280;11753;43.144;24.714;2023-05-29T01:39:39;99417.19;;;17.15;100.00
23170;BME280;11753;43.144;24.714;2023-05-29T01:40:40;99414.72;;;17.14;100.00
23170;BME280;11753;43.144;24.714;2023-05-29T01:41:43;99413.72;;;17.15;100.00
23170;BME280;11753;43.144;24.714;2023-05-29T01:42:44;99408.56;;;17.13;100.00
23170;BME280;11753;43.144;24.714;2023-05-29T01:43:47;99410.41;;;17.13;100.00
23170;BME280;11753;43.144;24.714;2023-05-29T01:44:48;99413.72;;;17.15;100.00
23170;BME280;11753;43.144;24.714;2023-05-29T01:45:50;99408.59;;;17.20;100.00
23170;BME280;11753;43.144;24.714;2023-05-29T01:46:51;99407.81;;;17.26;100.00
23170;BME280;11753;43.144;24.714;2023-05-29T01:47:53;99408.63;;;17.33;100.00
23170;BME280;11753;43.144;24.714;2023-05-29T01:48:55;99409.88;;;17.30;100.00
23170;BME280;11753;43.144;24.714;2023-05-29T01:49:59;99409.44;;;17.27;100.00
23170;BME280;11753;43.144;24.714;2023-05-29T01:51:01;99405.56;;;17.29;100.00
23170;BME280;11753;43.144;24.714;2023-05-29T01:52:02;99413.56;;;17.36;100.00
23170;BME280;11753;43.144;24.714;2023-05-29T01:53:03;99409.06;;;17.37;100.00
23170;BME280;11753;43.144;24.714;2023-05-29T01:54:04;99408.63;;;17.33;100.00
23170;BME280;11753;43.144;24.714;2023-05-29T01:55:06;99410.91;;;17.36;100.00
23170;BME280;11753;43.144;24.714;2023-05-29T01:56:10;99401.09;;;17.37;100.00
23170;BME280;11753;43.144;24.714;2023-05-29T01:57:11;99411.91;;;17.42;100.00
23170;BME280;11753;43.144;24.714;2023-05-29T01:58:14;99413.16;;;17.39;100.00
23170;BME280;11753;43.144;24.714;2023-05-29T01:59:15;99407.41;;;17.42;100.00
23170;BME280;11753;43.144;24.714;2023-05-29T02:00:17;99412.13;;;17.47;100.00
23170;BME280;11753;43.144;24.714;2023-05-29T02:01:21;99419.31;;;17.46;100.00
23170;BME280;11753;43.144;24.714;2023-05-29T02:02:22;99419.31;;;17.46;100.00
23170;BME280;11753;43.144;24.714;2023-05-29T02:03:26;99413.56;;;17.49;100.00
23170;BME280;11753;43.144;24.714;2023-05-29T02:04:29;99411.94;;;17.48;100.00
23170;BME280;11753;43.144;24.714;2023-05-29T02:05:30;99413.97;;;17.46;100.00
23170;BME280;11753;43.144;24.714;2023-05-29T02:06:31;99416.03;;;17.44;100.00
23170;BME280;11753;43.144;24.714;2023-05-29T02:07:36;99413.16;;;17.46;100.00
23170;BME280;11753;43.144;24.714;2023-05-29T02:08:37;99414.41;;;17.43;100.00
23170;BME280;11753;43.144;24.714;2023-05-29T02:09:38;99404.13;;;17.33;100.00
23170;BME280;11753;43.144;24.714;2023-05-29T02:10:39;99406.56;;;17.35;100.00
23170;BME280;11753;43.144;24.714;2023-05-29T02:11:41;99411.28;;;17.26;100.00
23170;BME280;11753;43.144;24.714;2023-05-29T02:12:45;99410.25;;;17.27;100.00
23170;BME280;11753;43.144;24.714;2023-05-29T02:13:46;99405.34;;;17.31;100.00
23170;BME280;11753;43.144;24.714;2023-05-29T02:14:47;99403.72;;;17.30;100.00
23170;BME280;11753;43.144;24.714;2023-05-29T02:15:48;99404.94;;;17.27;100.00
23170;BME280;11753;43.144;24.714;2023-05-29T02:16:48;99406.97;;;17.25;100.00
23170;BME280;11753;43.144;24.714;2023-05-29T02:17:50;99406.97;;;17.19;100.00
23170;BME280;11753;43.144;24.714;2023-05-29T02:18:51;99403.69;;;17.17;100.00
23170;BME280;11753;43.144;24.714;2023-05-29T02:19:52;99408.59;;;17.20;100.00
23170;BME280;11753;43.144;24.714;2023-05-29T02:20:53;99407.56;;;17.21;100.00
23170;BME280;11753;43.144;24.714;2023-05-29T02:21:54;99413.72;;;17.21;100.00
23170;BME280;11753;43.144;24.714;2023-05-29T02:22:55;99416.19;;;17.23;100.00
23170;BME280;11753;43.144;24.714;2023-05-29T02:23:56;99404.91;;;17.21;100.00
23170;BME280;11753;43.144;24.714;2023-05-29T02:24:57;99415.19;;;17.30;100.00
23170;BME280;11753;43.144;24.714;2023-05-29T02:25:58;99401.88;;;17.30;100.00
23170;BME280;11753;43.144;24.714;2023-05-29T02:26:59;99416.00;;;17.31;100.00
23170;BME280;11753;43.144;24.714;2023-05-29T02:27:59;99410.25;;;17.27;100.00
23170;BME280;11753;43.144;24.714;2023-05-29T02:29:00;99411.91;;;17.35;100.00
23170;BME280;11753;43.144;24.714;2023-05-29T02:30:01;99413.13;;;17.32;100.00
23170;BME280;11753;43.144;24.714;2023-05-29T02:31:02;99418.66;;;17.31;100.00
23170;BME280;11753;43.144;24.714;2023-05-29T02:32:04;99412.94;;;17.34;100.00
23170;BME280;11753;43.144;24.714;2023-05-29T02:33:05;99421.72;;;17.28;100.00
23170;BME280;11753;43.144;24.714;2023-05-29T02:34:07;99409.22;;;17.28;100.00
23170;BME280;11753;43.144;24.714;2023-05-29T02:35:08;99407.00;;;17.32;100.00
23170;BME280;11753;43.144;24.714;2023-05-29T02:36:09;99412.09;;;17.33;100.00
23170;BME280;11753;43.144;24.714;2023-05-29T02:37:11;99417.22;;;17.35;100.00
23170;BME280;11753;43.144;24.714;2023-05-29T02:38:12;99413.56;;;17.36;100.00
23170;BME280;11753;43.144;24.714;2023-05-29T02:39:13;99413.34;;;17.31;100.00
23170;BME280;11753;43.144;24.714;2023-05-29T02:40:14;99407.19;;;17.24;100.00
23170;BME280;11753;43.144;24.714;2023-05-29T02:41:15;99407.78;;;17.19;100.00
23170;BME280;11753;43.144;24.714;2023-05-29T02:42:16;99406.34;;;17.17;100.00
23170;BME280;11753;43.144;24.714;2023-05-29T02:43:17;99409.63;;;17.19;100.00
23170;BME280;11753;43.144;24.714;2023-05-29T02:44:18;99409.41;;;17.14;100.00
23170;BME280;11753;43.144;24.714;2023-05-29T02:45:19;99406.94;;;17.12;100.00
23170;BME280;11753;43.144;24.714;2023-05-29T02:46:20;99404.06;;;17.14;100.00
23170;BME280;11753;43.144;24.714;2023-05-29T02:47:22;99405.75;;;17.15;100.00
23170;BME280;11753;43.144;24.714;2023-05-29T02:48:24;99410.03;;;17.16;100.00
23170;BME280;11753;43.144;24.714;2023-05-29T02:49:27;99413.53;;;17.23;100.00
23170;BME280;11753;43.144;24.714;2023-05-29T02:50:27;99421.69;;;17.21;100.00
23170;BME280;11753;43.144;24.714;2023-05-29T02:51:29;99412.69;;;17.16;100.00
23170;BME280;11753;43.144;24.714;2023-05-29T02:52:32;99420.88;;;17.21;100.00
23170;BME280;11753;43.144;24.714;2023-05-29T02:53:32;99414.16;;;17.25;100.00
23170;BME280;11753;43.144;24.714;2023-05-29T02:54:33;99418.22;;;17.27;100.00
23170;BME280;11753;43.144;24.714;2023-05-29T02:55:34;99416.22;;;17.29;100.00
23170;BME280;11753;43.144;24.714;2023-05-29T02:56:36;99412.72;;;17.29;100.00
23170;BME280;11753;43.144;24.714;2023-05-29T02:57:37;99413.34;;;17.31;100.00
23170;BME280;11753;43.144;24.714;2023-05-29T02:58:38;99413.34;;;17.31;100.00
23170;BME280;11753;43.144;24.714;2023-05-29T02:59:39;99414.75;;;17.27;100.00
23170;BME280;11753;43.144;24.714;2023-05-29T03:00:40;99421.13;;;17.32;100.00
23170;BME280;11753;43.144;24.714;2023-05-29T03:01:41;99410.25;;;17.34;100.00
23170;BME280;11753;43.144;24.714;2023-05-29T03:02:43;99416.03;;;17.44;100.00
23170;BME280;11753;43.144;24.714;2023-05-29T03:03:44;99416.63;;;17.46;100.00
23170;BME280;11753;43.144;24.714;2023-05-29T03:04:45;99425.03;;;17.43;100.00
23170;BME280;11753;43.144;24.714;2023-05-29T03:05:46;99416.44;;;17.48;100.00
23170;BME280;11753;43.144;24.714;2023-05-29T03:06:47;99417.25;;;17.48;100.00
23170;BME280;11753;43.144;24.714;2023-05-29T03:07:48;99425.44;;;17.53;100.00
23170;BME280;11753;43.144;24.714;2023-05-29T03:08:48;99425.03;;;17.50;100.00
23170;BME280;11753;43.144;24.714;2023-05-29T03:09:53;99425.03;;;17.50;100.00
23170;BME280;11753;43.144;24.714;2023-05-29T03:10:54;99428.53;;;17.50;100.00
23170;BME280;11753;43.144;24.714;2023-05-29T03:11:55;99415.81;;;17.46;100.00
23170;BME280;11753;43.144;24.714;2023-05-29T03:12:56;99417.25;;;17.48;100.00
23170;BME280;11753;43.144;24.714;2023-05-29T03:13:57;99418.88;;;17.49;100.00
23170;BME280;11753;43.144;24.714;2023-05-29T03:14:58;99423.81;;;17.52;100.00
23170;BME280;11753;43.144;24.714;2023-05-29T03:15:59;99424.22;;;17.56;100.00
23170;BME280;11753;43.144;24.714;2023-05-29T03:17:00;99416.66;;;17.59;100.00
23170;BME280;11753;43.144;24.714;2023-05-29T03:18:01;99417.25;;;17.48;100.00
23170;BME280;11753;43.144;24.714;2023-05-29T03:19:02;99425.84;;;17.37;100.00
23170;BME280;11753;43.144;24.714;2023-05-29T03:20:04;99428.47;;;17.30;100.00
23170;BME280;11753;43.144;24.714;2023-05-29T03:21:11;99425.19;;;17.28;100.00
23170;BME280;11753;43.144;24.714;2023-05-29T03:22:12;99431.75;;;17.32;100.00
23170;BME280;11753;43.144;24.714;2023-05-29T03:23:13;99426.66;;;17.31;100.00
23170;BME280;11753;43.144;24.714;2023-05-29T03:24:14;99438.94;;;17.39;100.00
23170;BME280;11753;43.144;24.714;2023-05-29T03:25:15;99427.69;;;17.43;100.00
23170;BME280;11753;43.144;24.714;2023-05-29T03:26:17;99422.16;;;17.38;100.00
23170;BME280;11753;43.144;24.714;2023-05-29T03:27:17;99431.19;;;17.44;100.00
23170;BME280;11753;43.144;24.714;2023-05-29T03:28:18;99426.25;;;17.47;100.00
23170;BME280;11753;43.144;24.714;2023-05-29T03:29:19;99431.16;;;17.57;100.00
23170;BME280;11753;43.144;24.714;2023-05-29T03:30:20;99433.22;;;17.61;100.00
23170;BME280;11753;43.144;24.714;2023-05-29T03:31:21;99424.22;;;17.63;100.00
23170;BME280;11753;43.144;24.714;2023-05-29T03:32:22;99428.94;;;17.60;100.00
23170;BME280;11753;43.144;24.714;2023-05-29T03:33:23;99432.84;;;17.65;100.00
23170;BME280;11753;43.144;24.714;2023-05-29T03:34:24;99431.00;;;17.58;100.00
23170;BME280;11753;43.144;24.714;2023-05-29T03:35:25;99436.13;;;17.67;100.00
23170;BME280;11753;43.144;24.714;2023-05-29T03:36:28;99432.84;;;17.65;100.00
23170;BME280;11753;43.144;24.714;2023-05-29T03:37:29;99440.19;;;17.63;100.00
23170;BME280;11753;43.144;24.714;2023-05-29T03:38:30;99423.81;;;17.59;100.00
23170;BME280;11753;43.144;24.714;2023-05-29T03:39:31;99431.19;;;17.64;100.00
23170;BME280;11753;43.144;24.714;2023-05-29T03:40:32;99436.94;;;17.67;100.00
23170;BME280;11753;43.144;24.714;2023-05-29T03:41:33;99436.13;;;17.67;100.00
23170;BME280;11753;43.144;24.714;2023-05-29T03:42:34;99441.03;;;17.70;100.00
23170;BME280;11753;43.144;24.714;2023-05-29T03:43:35;99441.88;;;17.77;100.00
23170;BME280;11753;43.144;24.714;2023-05-29T03:44:36;99438.41;;;17.76;100.00
23170;BME280;11753;43.144;24.714;2023-05-29T03:45:37;99437.38;;;17.71;100.00
23170;BME280;11753;43.144;24.714;2023-05-29T03:46:38;99445.19;;;17.79;100.00
23170;BME280;11753;43.144;24.714;2023-05-29T03:47:39;99440.66;;;17.79;100.00
23170;BME280;11753;43.144;24.714;2023-05-29T03:48:43;99445.56;;;17.76;100.00
23170;BME280;11753;43.144;24.714;2023-05-29T03:49:44;99438.59;;;17.75;100.00
23170;BME280;11753;43.144;24.714;2023-05-29T03:50:46;99445.78;;;17.81;100.00
23170;BME280;11753;43.144;24.714;2023-05-29T03:51:47;99441.50;;;17.86;100.00
23170;BME280;11753;43.144;24.714;2023-05-29T03:52:49;99440.66;;;17.86;100.00
23170;BME280;11753;43.144;24.714;2023-05-29T03:53:49;99446.00;;;17.86;100.00
23170;BME280;11753;43.144;24.714;2023-05-29T03:54:50;99446.00;;;17.86;100.00
23170;BME280;11753;43.144;24.714;2023-05-29T03:55:53;99437.59;;;17.89;100.00
23170;BME280;11753;43.144;24.714;2023-05-29T03:56:54;99434.94;;;17.89;100.00
23170;BME280;11753;43.144;24.714;2023-05-29T03:57:55;99443.13;;;17.94;100.00
23170;BME280;11753;43.144;24.714;2023-05-29T03:58:57;99434.50;;;17.92;100.00
23170;BME280;11753;43.144;24.714;2023-05-29T04:00:01;99434.94;;;17.96;100.00
23170;BME280;11753;43.144;24.714;2023-05-29T04:01:02;99426.13;;;18.02;100.00
23170;BME280;11753;43.144;24.714;2023-05-29T04:02:03;99429.00;;;18.00;100.00
23170;BME280;11753;43.144;24.714;2023-05-29T04:03:07;99433.69;;;17.98;100.00
23170;BME280;11753;43.144;24.714;2023-05-29T04:04:08;99433.69;;;17.98;100.00
23170;BME280;11753;43.144;24.714;2023-05-29T04:05:10;99451.94;;;18.01;100.00
23170;BME280;11753;43.144;24.714;2023-05-29T04:06:11;99448.03;;;17.97;100.00
23170;BME280;11753;43.144;24.714;2023-05-29T04:07:11;99442.31;;;18.00;100.00
23170;BME280;11753;43.144;24.714;2023-05-29T04:08:12;99454.59;;;18.01;100.00
23170;BME280;11753;43.144;24.714;2023-05-29T04:09:14;99453.16;;;17.99;100.00
23170;BME280;11753;43.144;24.714;2023-05-29T04:10:15;99455.81;;;17.99;100.00
23170;BME280;11753;43.144;24.714;2023-05-29T04:11:17;99458.28;;;18.00;100.00
23170;BME280;11753;43.144;24.714;2023-05-29T04:12:20;99457.88;;;18.03;100.00
23170;BME280;11753;43.144;24.714;2023-05-29T04:13:22;99463.78;;;18.05;100.00
23170;BME280;11753;43.144;24.714;2023-05-29T04:14:23;99462.16;;;18.04;100.00
23170;BME280;11753;43.144;24.714;2023-05-29T04:15:23;99452.75;;;18.08;100.00
23170;BME280;11753;43.144;24.714;2023-05-29T04:16:24;99464.44;;;18.07;100.00
23170;BME280;11753;43.144;24.714;2023-05-29T04:17:25;99459.50;;;18.11;100.00
23170;BME280;11753;43.144;24.714;2023-05-29T04:18:27;99458.25;;;18.13;100.00
23170;BME280;11753;43.144;24.714;2023-05-29T04:19:28;99450.91;;;18.15;100.00
23170;BME280;11753;43.144;24.714;2023-05-29T04:20:29;99459.88;;;18.21;100.00
23170;BME280;11753;43.144;24.714;2023-05-29T04:21:31;99464.00;;;18.24;100.00
23170;BME280;11753;43.144;24.714;2023-05-29T04:22:36;99456.63;;;18.26;100.00
23170;BME280;11753;43.144;24.714;2023-05-29T04:23:38;99460.31;;;18.25;100.00
23170;BME280;11753;43.144;24.714;2023-05-29T04:24:39;99459.72;;;18.29;100.00
23170;BME280;11753;43.144;24.714;2023-05-29T04:25:42;99454.16;;;18.31;100.00
23170;BME280;11753;43.144;24.714;2023-05-29T04:26:44;99449.44;;;18.33;100.00
23170;BME280;11753;43.144;24.714;2023-05-29T04:27:45;99452.53;;;18.36;100.00
23170;BME280;11753;43.144;24.714;2023-05-29T04:28:49;99453.72;;;18.34;100.00
23170;BME280;11753;43.144;24.714;2023-05-29T04:29:53;99448.00;;;18.37;100.00
23170;BME280;11753;43.144;24.714;2023-05-29T04:30:57;99457.00;;;18.36;100.00
23170;BME280;11753;43.144;24.714;2023-05-29T04:31:58;99452.47;;;18.43;100.00
23170;BME280;11753;43.144;24.714;2023-05-29T04:32:59;99450.25;;;18.40;100.00
23170;BME280;11753;43.144;24.714;2023-05-29T04:34:00;99456.81;;;18.44;100.00
23170;BME280;11753;43.144;24.714;2023-05-29T04:35:08;99459.03;;;18.47;100.00
23170;BME280;11753;43.144;24.714;2023-05-29T04:36:10;99451.28;;;18.39;100.00
23170;BME280;11753;43.144;24.714;2023-05-29T04:37:11;99460.47;;;18.43;100.00
23170;BME280;11753;43.144;24.714;2023-05-29T04:38:13;99462.75;;;18.46;100.00
23170;BME280;11753;43.144;24.714;2023-05-29T04:39:14;99455.78;;;18.45;100.00
23170;BME280;11753;43.144;24.714;2023-05-29T04:40:15;99460.91;;;18.47;100.00
23170;BME280;11753;43.144;24.714;2023-05-29T04:41:21;99461.50;;;18.49;100.00
23170;BME280;11753;43.144;24.714;2023-05-29T04:42:24;99464.38;;;18.54;100.00
23170;BME280;11753;43.144;24.714;2023-05-29T04:43:25;99459.84;;;18.54;100.00
23170;BME280;11753;43.144;24.714;2023-05-29T04:44:27;99464.97;;;18.49;100.00
23170;BME280;11753;43.144;24.714;2023-05-29T04:45:31;99455.34;;;18.48;100.00
23170;BME280;11753;43.144;24.714;2023-05-29T04:46:31;99468.88;;;18.53;100.00
23170;BME280;11753;43.144;24.714;2023-05-29T04:47:32;99471.75;;;18.52;100.00
23170;BME280;11753;43.144;24.714;2023-05-29T04:48:33;99473.59;;;18.51;100.00
23170;BME280;11753;43.144;24.714;2023-05-29T04:49:34;99467.66;;;18.49;100.00
23170;BME280;11753;43.144;24.714;2023-05-29T04:50:35;99472.97;;;18.49;100.00
23170;BME280;11753;43.144;24.714;2023-05-29T04:51:39;99472.56;;;18.52;100.00
23170;BME280;11753;43.144;24.714;2023-05-29T04:52:43;99471.94;;;18.50;100.00
23170;BME280;11753;43.144;24.714;2023-05-29T04:53:44;99478.31;;;18.49;100.00
23170;BME280;11753;43.144;24.714;2023-05-29T04:54:45;99475.84;;;18.54;100.00
23170;BME280;11753;43.144;24.714;2023-05-29T04:55:45;99475.63;;;18.49;100.00
23170;BME280;11753;43.144;24.714;2023-05-29T04:56:46;99474.22;;;18.53;100.00
23170;BME280;11753;43.144;24.714;2023-05-29T04:57:49;99482.59;;;18.57;100.00
23170;BME280;11753;43.144;24.714;2023-05-29T04:58:50;99475.00;;;18.60;100.00
23170;BME280;11753;43.144;24.714;2023-05-29T04:59:52;99470.28;;;18.56;100.00
23170;BME280;11753;43.144;24.714;2023-05-29T05:00:53;99483.22;;;18.65;100.00
23170;BME280;11753;43.144;24.714;2023-05-29T05:01:53;99483.84;;;18.67;100.00
23170;BME280;11753;43.144;24.714;2023-05-29T05:02:54;99483.41;;;18.70;100.00
23170;BME280;11753;43.144;24.714;2023-05-29T05:03:56;99471.94;;;18.70;100.00
23170;BME280;11753;43.144;24.714;2023-05-29T05:04:57;99479.31;;;18.75;100.00
23170;BME280;11753;43.144;24.714;2023-05-29T05:05:57;99480.72;;;18.77;100.00
23170;BME280;11753;43.144;24.714;2023-05-29T05:06:58;99481.75;;;18.83;100.00
23170;BME280;11753;43.144;24.714;2023-05-29T05:07:59;99482.34;;;18.85;100.00
23170;BME280;11753;43.144;24.714;2023-05-29T05:08:59;99489.31;;;18.86;100.00
23170;BME280;11753;43.144;24.714;2023-05-29T05:10:02;99485.66;;;18.87;100.00
23170;BME280;11753;43.144;24.714;2023-05-29T05:11:04;99478.84;;;18.91;100.00
23170;BME280;11753;43.144;24.714;2023-05-29T05:12:07;99481.50;;;18.91;100.00
23170;BME280;11753;43.144;24.714;2023-05-29T05:13:08;99478.25;;;18.89;100.00
23170;BME280;11753;43.144;24.714;2023-05-29T05:14:09;99487.69;;;18.85;100.00
23170;BME280;11753;43.144;24.714;2023-05-29T05:15:10;99480.50;;;18.79;100.00
23170;BME280;11753;43.144;24.714;2023-05-29T05:16:11;99477.84;;;18.79;100.00
23170;BME280;11753;43.144;24.714;2023-05-29T05:17:12;99476.41;;;18.89;100.00
23170;BME280;11753;43.144;24.714;2023-05-29T05:18:13;99481.72;;;18.96;100.00
23170;BME280;11753;43.144;24.714;2023-05-29T05:19:15;99480.72;;;18.84;100.00
23170;BME280;11753;43.144;24.714;2023-05-29T05:20:16;99472.13;;;18.62;100.00
23170;BME280;11753;43.144;24.714;2023-05-29T05:21:17;99493.03;;;18.72;100.00
23170;BME280;11753;43.144;24.714;2023-05-29T05:22:18;99486.88;;;18.64;100.00
23170;BME280;11753;43.144;24.714;2023-05-29T05:23:18;99489.38;;;18.73;100.00
23170;BME280;11753;43.144;24.714;2023-05-29T05:24:22;99490.59;;;18.70;100.00
23170;BME280;11753;43.144;24.714;2023-05-29T05:25:23;99477.91;;;18.72;100.00